createdAt,value
2023-12-28T00:03:46.267Z,8.50
2023-12-28T00:07:48.013Z,8.50
2023-12-28T00:11:49.767Z,8.50
2023-12-28T00:15:51.528Z,8.50
2023-12-28T00:19:53.459Z,8.70
2023-12-28T00:23:55.293Z,8.80
2023-12-28T00:27:57.187Z,8.90
2023-12-28T00:31:58.990Z,9.10
2023-12-28T00:36:00.746Z,9.20
2023-12-28T00:40:02.512Z,9.20
2023-12-28T00:44:06.207Z,9.30
2023-12-28T00:48:08.212Z,9.40
2023-12-28T00:52:10.068Z,9.40
2023-12-28T00:56:11.830Z,9.50
2023-12-28T01:00:14.034Z,9.50
2023-12-28T01:04:15.891Z,9.50
2023-12-28T01:08:18.784Z,9.50
2023-12-28T01:12:20.508Z,9.50
2023-12-28T01:16:22.278Z,9.50
2023-12-28T01:20:24.395Z,9.50
2023-12-28T01:24:27.603Z,9.60
2023-12-28T01:28:29.437Z,9.50
2023-12-28T01:32:31.145Z,9.50
2023-12-28T01:36:32.925Z,9.50
2023-12-28T01:40:34.961Z,9.50
2023-12-28T01:44:36.694Z,9.50
2023-12-28T01:48:38.653Z,9.50
2023-12-28T01:52:40.779Z,9.50
2023-12-28T01:56:43.929Z,9.40
2023-12-28T02:00:46.311Z,9.40
2023-12-28T02:04:48.153Z,9.40
2023-12-28T02:08:49.878Z,9.40
2023-12-28T02:12:54.210Z,9.40
2023-12-28T02:17:04.376Z,9.40
2023-12-28T02:21:08.036Z,9.40
2023-12-28T02:25:13.076Z,9.40
2023-12-28T02:29:14.952Z,9.40
2023-12-28T02:33:44.026Z,9.40
2023-12-28T02:37:51.364Z,9.40
2023-12-28T02:41:53.150Z,9.40
2023-12-28T02:45:54.973Z,9.40
2023-12-28T02:50:00.129Z,9.40
2023-12-28T02:54:01.986Z,9.40
2023-12-28T02:58:04.047Z,9.40
2023-12-28T03:02:06.981Z,9.40
2023-12-28T03:06:08.690Z,9.50
2023-12-28T03:10:14.243Z,9.50
2023-12-28T03:14:16.459Z,9.50
2023-12-28T03:18:18.245Z,9.50
2023-12-28T03:22:20.653Z,9.50
2023-12-28T03:26:22.436Z,9.60
2023-12-28T03:30:24.240Z,9.50
2023-12-28T03:34:27.689Z,9.60
2023-12-28T03:38:29.472Z,9.60
2023-12-28T03:42:31.294Z,9.70
2023-12-28T03:46:33.225Z,9.60
2023-12-28T03:50:35.856Z,9.60
2023-12-28T03:54:37.887Z,9.60
2023-12-28T03:58:39.555Z,9.70
2023-12-28T04:02:41.326Z,9.70
2023-12-28T04:06:44.994Z,9.70
2023-12-28T04:10:46.700Z,9.70
2023-12-28T04:14:48.503Z,9.70
2023-12-28T04:18:50.334Z,9.70
2023-12-28T04:22:52.075Z,9.60
2023-12-28T04:26:53.823Z,9.70
2023-12-28T04:30:55.553Z,9.70
2023-12-28T04:34:57.592Z,9.60
2023-12-28T04:38:59.309Z,9.60
2023-12-28T04:43:00.954Z,9.70
2023-12-28T04:47:03.147Z,9.70
2023-12-28T04:51:05.151Z,9.80
2023-12-28T04:55:07.446Z,9.80
2023-12-28T04:59:09.113Z,9.80
2023-12-28T05:03:10.922Z,9.90
2023-12-28T05:07:12.637Z,9.90
2023-12-28T05:11:14.383Z,9.90
2023-12-28T05:15:16.667Z,9.80
2023-12-28T05:19:18.546Z,9.80
2023-12-28T05:23:20.292Z,9.90
2023-12-28T05:27:21.972Z,9.90
2023-12-28T05:31:23.884Z,9.90
2023-12-28T05:35:25.717Z,9.90
2023-12-28T05:39:27.406Z,9.90
2023-12-28T05:43:29.081Z,9.80
2023-12-28T05:47:30.912Z,9.90
2023-12-28T05:51:41.327Z,9.90
2023-12-28T05:55:43.141Z,9.80
2023-12-28T05:59:44.804Z,9.90
2023-12-28T06:03:46.555Z,9.90
2023-12-28T06:07:48.350Z,9.80
2023-12-28T06:11:50.009Z,9.90
2023-12-28T06:15:51.846Z,9.90
2023-12-28T06:19:54.071Z,9.90
2023-12-28T06:23:56.383Z,9.90
2023-12-28T06:27:58.438Z,9.90
2023-12-28T06:32:00.305Z,9.80
2023-12-28T06:36:06.864Z,9.80
2023-12-28T06:40:09.270Z,9.80
2023-12-28T06:44:14.754Z,9.80
2023-12-28T06:48:16.638Z,9.80
2023-12-28T06:52:18.588Z,9.80
2023-12-28T06:56:20.332Z,9.80
2023-12-28T07:00:23.079Z,9.80
2023-12-28T07:04:26.578Z,9.80
2023-12-28T07:08:28.300Z,9.90
2023-12-28T07:12:29.994Z,9.90
2023-12-28T07:16:31.702Z,9.90
2023-12-28T07:20:33.401Z,10.00
2023-12-28T07:24:35.288Z,10.00
2023-12-28T07:28:37.024Z,10.10
2023-12-28T07:32:38.752Z,10.10
2023-12-28T07:36:43.783Z,10.10
2023-12-28T07:40:45.597Z,10.10
2023-12-28T07:44:47.404Z,10.10
2023-12-28T07:48:49.371Z,10.30
2023-12-28T07:52:51.409Z,10.20
2023-12-28T07:56:53.113Z,10.20
2023-12-28T08:00:55.059Z,10.20
2023-12-28T08:04:56.789Z,10.20
2023-12-28T08:09:00.223Z,10.20
2023-12-28T08:13:02.030Z,10.20
2023-12-28T08:17:04.200Z,10.20
2023-12-28T08:21:06.003Z,10.20
2023-12-28T08:25:08.150Z,10.20
2023-12-28T08:29:09.971Z,10.20
2023-12-28T08:33:11.851Z,10.20
2023-12-28T08:37:13.605Z,10.20
2023-12-28T08:41:22.376Z,10.20
2023-12-28T08:45:24.172Z,10.20
2023-12-28T08:49:26.441Z,10.20
2023-12-28T08:53:28.162Z,10.30
2023-12-28T08:57:39.511Z,10.20
2023-12-28T09:01:44.183Z,10.30
2023-12-28T09:05:45.966Z,10.30
2023-12-28T09:09:48.017Z,10.20
2023-12-28T09:13:49.916Z,10.30
2023-12-28T09:17:51.931Z,10.30
2023-12-28T09:21:53.654Z,10.40
2023-12-28T09:25:55.422Z,10.50
2023-12-28T09:29:57.245Z,10.60
2023-12-28T09:33:59.337Z,10.60
2023-12-28T09:38:01.250Z,10.60
2023-12-28T09:42:10.092Z,10.70
2023-12-28T09:46:12.474Z,10.70
2023-12-28T09:50:15.611Z,10.70
2023-12-28T09:54:19.157Z,10.70
2023-12-28T09:58:23.378Z,10.80
2023-12-28T10:02:25.375Z,10.80
2023-12-28T10:06:27.505Z,10.80
2023-12-28T10:10:30.453Z,10.80
2023-12-28T10:14:32.177Z,10.90
2023-12-28T10:18:34.060Z,10.80
2023-12-28T10:22:35.833Z,10.90
2023-12-28T10:26:37.652Z,11.00
2023-12-28T10:30:42.149Z,10.90
2023-12-28T10:34:44.425Z,11.00
2023-12-28T10:38:48.609Z,11.00
2023-12-28T10:42:58.709Z,11.00
2023-12-28T10:47:03.415Z,11.10
2023-12-28T10:51:07.774Z,11.10
2023-12-28T10:55:26.363Z,11.20
2023-12-28T10:59:49.055Z,11.40
2023-12-28T11:04:01.313Z,11.50
2023-12-28T11:08:04.212Z,11.40
2023-12-28T11:12:09.327Z,11.60
2023-12-28T11:16:12.083Z,11.60
2023-12-28T11:20:15.119Z,11.70
2023-12-28T11:24:18.091Z,11.70
2023-12-28T11:28:20.794Z,11.60
2023-12-28T11:32:22.562Z,11.60
2023-12-28T11:36:33.938Z,11.60
2023-12-28T11:40:55.574Z,11.70
2023-12-28T11:44:57.378Z,11.80
2023-12-28T11:49:10.549Z,11.80
2023-12-28T11:53:13.589Z,11.80
2023-12-28T11:57:16.769Z,11.90
2023-12-28T12:01:18.663Z,11.90
2023-12-28T12:05:21.674Z,11.90
2023-12-28T12:09:23.771Z,11.80
2023-12-28T12:13:26.829Z,11.70
2023-12-28T12:17:28.826Z,11.70
2023-12-28T12:21:30.604Z,11.70
2023-12-28T12:25:32.292Z,11.70
2023-12-28T12:29:33.988Z,11.60
2023-12-28T12:33:35.813Z,11.60
2023-12-28T12:37:52.471Z,11.70
2023-12-28T12:41:54.255Z,11.60
2023-12-28T12:45:56.193Z,11.50
2023-12-28T12:49:58.066Z,11.50
2023-12-28T12:54:04.209Z,11.60
2023-12-28T12:58:06.934Z,11.60
2023-12-28T13:02:09.611Z,11.70
2023-12-28T13:06:11.570Z,11.60
2023-12-28T13:10:13.427Z,11.60
2023-12-28T13:14:15.164Z,11.70
2023-12-28T13:18:17.325Z,11.60
2023-12-28T13:22:19.053Z,11.60
2023-12-28T13:26:20.766Z,11.50
2023-12-28T13:30:23.207Z,11.50
2023-12-28T13:34:25.568Z,11.50
2023-12-28T13:38:28.377Z,11.50
2023-12-28T13:42:30.141Z,11.50
2023-12-28T13:46:32.180Z,11.50
2023-12-28T13:50:33.915Z,11.40
2023-12-28T13:54:35.710Z,11.40
2023-12-28T13:58:37.406Z,11.40
2023-12-28T14:02:39.261Z,11.30
2023-12-28T14:06:41.055Z,11.40
2023-12-28T14:10:42.755Z,11.30
2023-12-28T14:14:44.457Z,11.30
2023-12-28T14:18:46.290Z,11.40
2023-12-28T14:22:48.426Z,11.30
2023-12-28T14:26:53.371Z,11.30
2023-12-28T14:30:55.605Z,11.20
2023-12-28T14:34:57.688Z,11.20
2023-12-28T14:39:02.166Z,11.20
2023-12-28T14:43:05.318Z,11.20
2023-12-28T14:47:07.248Z,11.20
2023-12-28T14:51:09.025Z,11.10
2023-12-28T14:55:10.961Z,11.10
2023-12-28T14:59:12.781Z,11.00
2023-12-28T15:03:14.491Z,11.00
2023-12-28T15:07:17.432Z,11.00
2023-12-28T15:11:21.305Z,10.90
2023-12-28T15:15:26.935Z,10.90
2023-12-28T15:19:29.080Z,10.90
2023-12-28T15:23:30.990Z,10.80
2023-12-28T15:27:33.345Z,10.80
2023-12-28T15:31:35.331Z,10.70
2023-12-28T15:35:40.280Z,10.80
2023-12-28T15:39:43.380Z,10.90
2023-12-28T15:43:45.085Z,10.90
2023-12-28T15:47:47.083Z,10.90
2023-12-28T15:51:48.829Z,11.10
2023-12-28T15:55:58.282Z,10.90
2023-12-28T16:00:07.938Z,10.80
2023-12-28T16:04:11.118Z,10.70
2023-12-28T16:08:12.812Z,10.70
2023-12-28T16:12:14.525Z,10.70
2023-12-28T16:16:16.575Z,10.70
2023-12-28T16:20:18.685Z,10.70
2023-12-28T16:24:20.890Z,10.60
2023-12-28T16:28:22.934Z,10.60
2023-12-28T16:32:24.691Z,10.60
2023-12-28T16:36:26.899Z,10.60
2023-12-28T16:40:28.578Z,10.60
2023-12-28T16:44:30.293Z,10.60
2023-12-28T16:48:33.446Z,10.50
2023-12-28T16:52:35.212Z,10.60
2023-12-28T16:56:38.536Z,10.50
2023-12-28T17:00:40.304Z,10.60
2023-12-28T17:04:42.371Z,10.60
2023-12-28T17:08:44.709Z,10.50
2023-12-28T17:12:46.988Z,10.50
2023-12-28T17:16:50.851Z,10.50
2023-12-28T17:20:52.752Z,10.50
2023-12-28T17:25:17.367Z,10.50
2023-12-28T17:29:20.394Z,10.50
2023-12-28T17:33:25.410Z,10.50
2023-12-28T17:37:27.525Z,10.40
2023-12-28T17:41:31.472Z,10.30
2023-12-28T17:45:48.027Z,10.30
2023-12-28T17:49:50.264Z,10.30
2023-12-28T17:53:52.309Z,10.30
2023-12-28T17:57:54.101Z,10.30
2023-12-28T18:01:55.873Z,10.30
2023-12-28T18:05:57.598Z,10.30
2023-12-28T18:09:59.319Z,10.30
2023-12-28T18:14:01.210Z,10.30
2023-12-28T18:18:03.309Z,10.40
2023-12-28T18:22:05.343Z,10.30
2023-12-28T18:26:08.446Z,10.30
2023-12-28T18:30:11.149Z,10.30
2023-12-28T18:34:13.143Z,10.30
2023-12-28T18:38:15.256Z,10.30
2023-12-28T18:42:17.135Z,10.30
2023-12-28T18:46:18.860Z,10.20
2023-12-28T18:50:20.854Z,10.20
2023-12-28T18:54:22.610Z,10.30
2023-12-28T18:58:24.337Z,10.20
2023-12-28T19:02:27.216Z,10.20
2023-12-28T19:06:28.910Z,10.20
2023-12-28T19:10:30.568Z,10.20
2023-12-28T19:14:32.416Z,10.30
2023-12-28T19:18:34.285Z,10.20
2023-12-28T19:22:36.420Z,10.30
2023-12-28T19:26:38.108Z,10.20
2023-12-28T19:30:39.900Z,10.20
2023-12-28T19:34:41.649Z,10.20
2023-12-28T19:38:43.494Z,10.20
2023-12-28T19:42:45.220Z,10.20
2023-12-28T19:46:46.915Z,10.20
2023-12-28T19:50:48.685Z,10.20
2023-12-28T19:54:50.532Z,10.10
2023-12-28T19:58:52.214Z,10.20
2023-12-28T20:02:53.940Z,10.20
2023-12-28T20:06:57.251Z,10.20
2023-12-28T20:10:58.976Z,10.20
2023-12-28T20:15:00.773Z,10.20
2023-12-28T20:19:02.748Z,10.20
2023-12-28T20:23:04.653Z,10.20
2023-12-28T20:27:06.464Z,10.10
2023-12-28T20:31:08.300Z,10.10
2023-12-28T20:35:10.109Z,10.10
2023-12-28T20:39:12.058Z,10.10
2023-12-28T20:43:13.738Z,10.10
2023-12-28T20:47:16.001Z,10.10
2023-12-28T20:51:19.013Z,10.10
2023-12-28T20:55:20.758Z,10.10
2023-12-28T20:59:22.442Z,10.10
2023-12-28T21:03:24.443Z,10.10
2023-12-28T21:07:26.200Z,10.10
2023-12-28T21:11:27.858Z,10.10
2023-12-28T21:15:29.636Z,10.10
2023-12-28T21:19:32.282Z,10.10
2023-12-28T21:23:34.080Z,10.30
2023-12-28T21:27:35.924Z,10.50
2023-12-28T21:31:37.710Z,10.30
2023-12-28T21:35:39.580Z,10.20
2023-12-28T21:39:42.086Z,10.10
2023-12-28T21:43:43.954Z,10.10
2023-12-28T21:47:46.553Z,10.20
2023-12-28T21:51:48.448Z,10.10
2023-12-28T21:55:50.216Z,10.10
2023-12-28T21:59:51.980Z,10.10
2023-12-28T22:03:53.785Z,10.20
2023-12-28T22:07:55.666Z,10.20
2023-12-28T22:11:57.364Z,10.20
2023-12-28T22:16:00.637Z,10.20
2023-12-28T22:20:06.064Z,10.30
2023-12-28T22:24:08.039Z,10.20
2023-12-28T22:28:09.869Z,10.30
2023-12-28T22:32:11.679Z,10.30
2023-12-28T22:36:13.440Z,10.40
2023-12-28T22:40:15.198Z,10.30
2023-12-28T22:44:16.897Z,10.30
2023-12-28T22:48:19.615Z,10.30
2023-12-28T22:52:21.409Z,10.40
2023-12-28T22:56:23.221Z,10.40
2023-12-28T23:00:27.021Z,10.40
2023-12-28T23:04:31.188Z,10.40
2023-12-28T23:08:34.361Z,10.40
2023-12-28T23:12:37.058Z,10.40
2023-12-28T23:16:38.859Z,10.30
2023-12-28T23:20:41.499Z,10.40
2023-12-28T23:24:43.604Z,10.40
2023-12-28T23:28:45.271Z,10.40
2023-12-28T23:32:47.182Z,10.40
2023-12-28T23:36:49.711Z,10.40
2023-12-28T23:40:51.727Z,10.40
2023-12-28T23:44:53.717Z,10.40
2023-12-28T23:48:55.556Z,10.40
2023-12-28T23:52:57.364Z,10.40
2023-12-28T23:57:01.285Z,10.40
